sensor_id;sensor_type;location;lat;lon;timestamp;temperature;humidity
37874;DHT22;23709;48.078;11.684;2023-09-18T00:01:00;17.60;99.90
37874;DHT22;23709;48.078;11.684;2023-09-18T00:03:33;17.80;99.90
37874;DHT22;23709;48.078;11.684;2023-09-18T00:06:06;17.80;99.90
37874;DHT22;23709;48.078;11.684;2023-09-18T00:08:39;17.70;99.90
37874;DHT22;23709;48.078;11.684;2023-09-18T00:11:11;17.60;99.90
37874;DHT22;23709;48.078;11.684;2023-09-18T00:13:44;17.60;99.90
37874;DHT22;23709;48.078;11.684;2023-09-18T00:16:16;17.60;99.90
37874;DHT22;23709;48.078;11.684;2023-09-18T00:18:49;17.60;99.90
37874;DHT22;23709;48.078;11.684;2023-09-18T00:21:21;17.60;99.90
37874;DHT22;23709;48.078;11.684;2023-09-18T00:23:54;17.50;99.90
37874;DHT22;23709;48.078;11.684;2023-09-18T00:26:26;17.60;99.90
37874;DHT22;23709;48.078;11.684;2023-09-18T00:28:58;17.50;99.90
37874;DHT22;23709;48.078;11.684;2023-09-18T00:31:31;17.40;99.90
37874;DHT22;23709;48.078;11.684;2023-09-18T00:34:03;17.40;99.90
37874;DHT22;23709;48.078;11.684;2023-09-18T00:36:35;17.30;99.90
37874;DHT22;23709;48.078;11.684;2023-09-18T00:39:07;17.20;99.90
37874;DHT22;23709;48.078;11.684;2023-09-18T00:41:40;17.20;99.90
37874;DHT22;23709;48.078;11.684;2023-09-18T00:44:13;17.20;99.90
37874;DHT22;23709;48.078;11.684;2023-09-18T00:46:45;17.10;99.90
37874;DHT22;23709;48.078;11.684;2023-09-18T00:49:18;17.10;99.90
37874;DHT22;23709;48.078;11.684;2023-09-18T00:51:51;17.00;99.90
37874;DHT22;23709;48.078;11.684;2023-09-18T00:54:23;17.00;99.90
37874;DHT22;23709;48.078;11.684;2023-09-18T00:56:57;17.00;99.90
37874;DHT22;23709;48.078;11.684;2023-09-18T00:59:29;17.00;99.90
37874;DHT22;23709;48.078;11.684;2023-09-18T01:02:03;16.90;99.90
37874;DHT22;23709;48.078;11.684;2023-09-18T01:04:37;16.80;99.90
37874;DHT22;23709;48.078;11.684;2023-09-18T01:07:10;16.90;99.90
37874;DHT22;23709;48.078;11.684;2023-09-18T01:09:42;16.80;99.90
37874;DHT22;23709;48.078;11.684;2023-09-18T01:15:30;16.80;99.90
37874;DHT22;23709;48.078;11.684;2023-09-18T01:18:04;16.80;99.90
37874;DHT22;23709;48.078;11.684;2023-09-18T01:20:37;16.80;99.90
37874;DHT22;23709;48.078;11.684;2023-09-18T01:23:10;16.70;99.90
37874;DHT22;23709;48.078;11.684;2023-09-18T01:25:43;16.70;99.90
37874;DHT22;23709;48.078;11.684;2023-09-18T01:28:15;16.80;99.90
37874;DHT22;23709;48.078;11.684;2023-09-18T01:30:48;16.90;99.90
37874;DHT22;23709;48.078;11.684;2023-09-18T01:33:21;17.00;99.90
37874;DHT22;23709;48.078;11.684;2023-09-18T01:35:53;16.90;99.90
37874;DHT22;23709;48.078;11.684;2023-09-18T01:38:28;16.90;99.90
37874;DHT22;23709;48.078;11.684;2023-09-18T01:41:01;17.00;99.90
37874;DHT22;23709;48.078;11.684;2023-09-18T01:43:33;17.00;99.90
37874;DHT22;23709;48.078;11.684;2023-09-18T01:46:08;17.00;99.90
37874;DHT22;23709;48.078;11.684;2023-09-18T01:48:46;16.80;99.90
37874;DHT22;23709;48.078;11.684;2023-09-18T01:51:19;16.70;99.90
37874;DHT22;23709;48.078;11.684;2023-09-18T01:53:52;16.70;99.90
37874;DHT22;23709;48.078;11.684;2023-09-18T01:56:24;16.60;99.90
37874;DHT22;23709;48.078;11.684;2023-09-18T01:58:57;16.60;99.90
37874;DHT22;23709;48.078;11.684;2023-09-18T02:01:30;16.60;99.90
37874;DHT22;23709;48.078;11.684;2023-09-18T02:04:04;16.70;99.90
37874;DHT22;23709;48.078;11.684;2023-09-18T02:06:56;16.80;99.90
37874;DHT22;23709;48.078;11.684;2023-09-18T02:09:29;16.70;99.90
37874;DHT22;23709;48.078;11.684;2023-09-18T02:12:01;16.60;99.90
37874;DHT22;23709;48.078;11.684;2023-09-18T02:14:34;16.60;99.90
37874;DHT22;23709;48.078;11.684;2023-09-18T02:17:07;16.50;99.90
37874;DHT22;23709;48.078;11.684;2023-09-18T02:19:39;16.50;99.90
37874;DHT22;23709;48.078;11.684;2023-09-18T02:22:11;16.50;99.90
37874;DHT22;23709;48.078;11.684;2023-09-18T02:24:43;16.50;99.90
37874;DHT22;23709;48.078;11.684;2023-09-18T02:27:16;16.50;99.90
37874;DHT22;23709;48.078;11.684;2023-09-18T02:29:50;16.40;99.90
37874;DHT22;23709;48.078;11.684;2023-09-18T02:32:25;16.40;99.90
37874;DHT22;23709;48.078;11.684;2023-09-18T02:34:58;16.30;99.90
37874;DHT22;23709;48.078;11.684;2023-09-18T02:37:30;16.30;99.90
37874;DHT22;23709;48.078;11.684;2023-09-18T02:40:03;16.30;99.90
37874;DHT22;23709;48.078;11.684;2023-09-18T02:42:37;16.20;99.90
37874;DHT22;23709;48.078;11.684;2023-09-18T02:45:09;16.20;99.90
37874;DHT22;23709;48.078;11.684;2023-09-18T02:47:42;16.20;99.90
37874;DHT22;23709;48.078;11.684;2023-09-18T02:50:15;16.20;99.90
37874;DHT22;23709;48.078;11.684;2023-09-18T02:52:47;16.20;99.90
37874;DHT22;23709;48.078;11.684;2023-09-18T02:55:20;16.10;99.90
37874;DHT22;23709;48.078;11.684;2023-09-18T02:57:53;16.10;99.90
37874;DHT22;23709;48.078;11.684;2023-09-18T03:00:25;16.10;99.90
37874;DHT22;23709;48.078;11.684;2023-09-18T03:03:17;16.00;99.90
37874;DHT22;23709;48.078;11.684;2023-09-18T03:05:50;16.00;99.90
37874;DHT22;23709;48.078;11.684;2023-09-18T03:08:22;16.10;99.90
37874;DHT22;23709;48.078;11.684;2023-09-18T03:10:54;16.10;99.90
37874;DHT22;23709;48.078;11.684;2023-09-18T03:13:28;16.00;99.90
37874;DHT22;23709;48.078;11.684;2023-09-18T03:16:00;16.00;99.90
37874;DHT22;23709;48.078;11.684;2023-09-18T03:18:33;16.10;99.90
37874;DHT22;23709;48.078;11.684;2023-09-18T03:21:05;16.10;99.90
37874;DHT22;23709;48.078;11.684;2023-09-18T03:23:38;16.30;99.90
37874;DHT22;23709;48.078;11.684;2023-09-18T03:26:10;16.30;99.90
37874;DHT22;23709;48.078;11.684;2023-09-18T03:28:43;16.20;99.90
37874;DHT22;23709;48.078;11.684;2023-09-18T03:31:15;16.20;99.90
37874;DHT22;23709;48.078;11.684;2023-09-18T03:33:47;16.10;99.90
37874;DHT22;23709;48.078;11.684;2023-09-18T03:36:23;16.00;99.90
37874;DHT22;23709;48.078;11.684;2023-09-18T03:38:56;16.00;99.90
37874;DHT22;23709;48.078;11.684;2023-09-18T03:41:28;16.00;99.90
37874;DHT22;23709;48.078;11.684;2023-09-18T03:44:06;16.00;99.90
37874;DHT22;23709;48.078;11.684;2023-09-18T03:46:39;16.00;99.90
37874;DHT22;23709;48.078;11.684;2023-09-18T03:49:11;16.00;99.90
37874;DHT22;23709;48.078;11.684;2023-09-18T03:51:44;16.20;99.90
37874;DHT22;23709;48.078;11.684;2023-09-18T03:54:17;16.30;99.90
37874;DHT22;23709;48.078;11.684;2023-09-18T03:56:49;16.40;99.90
37874;DHT22;23709;48.078;11.684;2023-09-18T03:59:21;16.50;99.90
37874;DHT22;23709;48.078;11.684;2023-09-18T04:01:53;16.50;99.90
37874;DHT22;23709;48.078;11.684;2023-09-18T04:04:25;16.40;99.90
37874;DHT22;23709;48.078;11.684;2023-09-18T04:06:58;16.40;99.90
37874;DHT22;23709;48.078;11.684;2023-09-18T04:09:30;16.20;99.90
37874;DHT22;23709;48.078;11.684;2023-09-18T04:12:04;16.10;99.90
37874;DHT22;23709;48.078;11.684;2023-09-18T04:14:39;16.10;99.90
37874;DHT22;23709;48.078;11.684;2023-09-18T04:17:11;16.10;99.90
37874;DHT22;23709;48.078;11.684;2023-09-18T04:19:44;16.00;99.90
37874;DHT22;23709;48.078;11.684;2023-09-18T04:22:16;16.00;99.90
37874;DHT22;23709;48.078;11.684;2023-09-18T04:24:49;16.00;99.90
37874;DHT22;23709;48.078;11.684;2023-09-18T04:27:22;15.90;99.90
37874;DHT22;23709;48.078;11.684;2023-09-18T04:29:54;15.80;99.90
37874;DHT22;23709;48.078;11.684;2023-09-18T04:32:27;15.80;99.90
37874;DHT22;23709;48.078;11.684;2023-09-18T04:35:01;15.80;99.90
37874;DHT22;23709;48.078;11.684;2023-09-18T04:37:37;15.80;99.90
37874;DHT22;23709;48.078;11.684;2023-09-18T04:40:11;15.70;99.90
37874;DHT22;23709;48.078;11.684;2023-09-18T04:42:45;15.70;99.90
37874;DHT22;23709;48.078;11.684;2023-09-18T04:45:17;15.70;99.90
37874;DHT22;23709;48.078;11.684;2023-09-18T04:47:51;15.60;99.90
37874;DHT22;23709;48.078;11.684;2023-09-18T04:50:23;15.60;99.90
37874;DHT22;23709;48.078;11.684;2023-09-18T04:52:58;15.60;99.90
37874;DHT22;23709;48.078;11.684;2023-09-18T04:55:31;15.60;99.90
37874;DHT22;23709;48.078;11.684;2023-09-18T04:58:04;15.60;99.90
37874;DHT22;23709;48.078;11.684;2023-09-18T05:00:37;15.70;99.90
37874;DHT22;23709;48.078;11.684;2023-09-18T05:03:10;15.70;99.90
37874;DHT22;23709;48.078;11.684;2023-09-18T05:05:43;15.70;99.90
37874;DHT22;23709;48.078;11.684;2023-09-18T05:08:16;15.60;99.90
37874;DHT22;23709;48.078;11.684;2023-09-18T05:10:48;15.70;99.90
37874;DHT22;23709;48.078;11.684;2023-09-18T05:13:21;15.70;99.90
37874;DHT22;23709;48.078;11.684;2023-09-18T05:15:53;15.70;99.90
37874;DHT22;23709;48.078;11.684;2023-09-18T05:18:26;15.70;99.90
37874;DHT22;23709;48.078;11.684;2023-09-18T05:20:58;15.80;99.90
37874;DHT22;23709;48.078;11.684;2023-09-18T05:23:31;15.70;99.90
37874;DHT22;23709;48.078;11.684;2023-09-18T05:26:04;15.80;99.90
37874;DHT22;23709;48.078;11.684;2023-09-18T05:28:36;15.80;99.90
37874;DHT22;23709;48.078;11.684;2023-09-18T05:31:08;15.80;99.90
37874;DHT22;23709;48.078;11.684;2023-09-18T05:33:41;15.80;99.90
37874;DHT22;23709;48.078;11.684;2023-09-18T05:36:13;15.80;99.90
37874;DHT22;23709;48.078;11.684;2023-09-18T05:38:46;15.80;99.90
37874;DHT22;23709;48.078;11.684;2023-09-18T05:41:19;15.80;99.90
37874;DHT22;23709;48.078;11.684;2023-09-18T05:43:51;15.90;99.90
37874;DHT22;23709;48.078;11.684;2023-09-18T05:46:24;15.90;99.90
37874;DHT22;23709;48.078;11.684;2023-09-18T05:48:56;16.00;99.90
37874;DHT22;23709;48.078;11.684;2023-09-18T05:51:30;16.10;99.90
37874;DHT22;23709;48.078;11.684;2023-09-18T05:54:05;16.20;99.90
37874;DHT22;23709;48.078;11.684;2023-09-18T05:56:37;16.20;99.90
37874;DHT22;23709;48.078;11.684;2023-09-18T05:59:10;16.30;99.90
37874;DHT22;23709;48.078;11.684;2023-09-18T06:01:42;16.40;99.90
37874;DHT22;23709;48.078;11.684;2023-09-18T06:04:15;16.70;99.90
37874;DHT22;23709;48.078;11.684;2023-09-18T06:06:49;16.70;99.90
37874;DHT22;23709;48.078;11.684;2023-09-18T06:09:21;16.80;99.90
37874;DHT22;23709;48.078;11.684;2023-09-18T06:11:54;16.90;99.90
37874;DHT22;23709;48.078;11.684;2023-09-18T06:14:26;17.00;99.90
37874;DHT22;23709;48.078;11.684;2023-09-18T06:16:59;17.10;99.90
37874;DHT22;23709;48.078;11.684;2023-09-18T06:19:31;17.40;99.90
37874;DHT22;23709;48.078;11.684;2023-09-18T06:22:04;17.50;99.90
37874;DHT22;23709;48.078;11.684;2023-09-18T06:24:37;17.70;99.90
37874;DHT22;23709;48.078;11.684;2023-09-18T06:27:10;17.80;99.90
37874;DHT22;23709;48.078;11.684;2023-09-18T06:29:43;17.90;99.90
37874;DHT22;23709;48.078;11.684;2023-09-18T06:32:16;18.00;99.90
37874;DHT22;23709;48.078;11.684;2023-09-18T06:34:48;18.10;99.90
37874;DHT22;23709;48.078;11.684;2023-09-18T06:37:20;18.10;99.90
37874;DHT22;23709;48.078;11.684;2023-09-18T06:39:53;18.30;99.90
37874;DHT22;23709;48.078;11.684;2023-09-18T06:42:25;18.40;99.90
37874;DHT22;23709;48.078;11.684;2023-09-18T06:45:01;18.50;99.90
37874;DHT22;23709;48.078;11.684;2023-09-18T06:47:38;18.60;99.90
37874;DHT22;23709;48.078;11.684;2023-09-18T06:50:13;18.70;99.90
37874;DHT22;23709;48.078;11.684;2023-09-18T06:52:45;18.80;99.90
37874;DHT22;23709;48.078;11.684;2023-09-18T06:55:18;18.80;99.90
37874;DHT22;23709;48.078;11.684;2023-09-18T06:57:51;18.80;99.90
37874;DHT22;23709;48.078;11.684;2023-09-18T07:00:24;18.90;99.90
37874;DHT22;23709;48.078;11.684;2023-09-18T07:02:57;18.90;99.90
37874;DHT22;23709;48.078;11.684;2023-09-18T07:05:29;19.00;99.90
37874;DHT22;23709;48.078;11.684;2023-09-18T07:08:02;19.00;99.90
37874;DHT22;23709;48.078;11.684;2023-09-18T07:10:35;19.10;99.90
37874;DHT22;23709;48.078;11.684;2023-09-18T07:13:07;19.20;99.90
37874;DHT22;23709;48.078;11.684;2023-09-18T07:15:40;19.20;99.90
37874;DHT22;23709;48.078;11.684;2023-09-18T07:18:13;19.40;99.90
37874;DHT22;23709;48.078;11.684;2023-09-18T07:20:46;19.50;99.90
37874;DHT22;23709;48.078;11.684;2023-09-18T07:23:19;19.50;99.90
37874;DHT22;23709;48.078;11.684;2023-09-18T07:25:51;19.60;99.90
37874;DHT22;23709;48.078;11.684;2023-09-18T07:28:24;19.70;99.90
37874;DHT22;23709;48.078;11.684;2023-09-18T07:30:56;19.80;99.90
37874;DHT22;23709;48.078;11.684;2023-09-18T07:33:29;20.00;99.90
37874;DHT22;23709;48.078;11.684;2023-09-18T07:36:01;20.20;99.90
37874;DHT22;23709;48.078;11.684;2023-09-18T07:38:33;20.40;99.90
37874;DHT22;23709;48.078;11.684;2023-09-18T07:41:06;20.60;99.90
37874;DHT22;23709;48.078;11.684;2023-09-18T07:43:38;20.70;99.90
37874;DHT22;23709;48.078;11.684;2023-09-18T07:46:12;20.80;99.90
37874;DHT22;23709;48.078;11.684;2023-09-18T07:48:44;21.00;99.90
37874;DHT22;23709;48.078;11.684;2023-09-18T07:51:16;21.10;99.90
37874;DHT22;23709;48.078;11.684;2023-09-18T07:53:48;21.30;99.90
37874;DHT22;23709;48.078;11.684;2023-09-18T07:56:21;21.50;99.90
37874;DHT22;23709;48.078;11.684;2023-09-18T07:58:53;21.50;99.90
37874;DHT22;23709;48.078;11.684;2023-09-18T08:01:26;21.70;99.90
37874;DHT22;23709;48.078;11.684;2023-09-18T08:04:02;21.80;99.90
37874;DHT22;23709;48.078;11.684;2023-09-18T08:06:35;22.00;99.90
37874;DHT22;23709;48.078;11.684;2023-09-18T08:09:07;22.10;99.90
37874;DHT22;23709;48.078;11.684;2023-09-18T08:11:42;22.20;99.90
37874;DHT22;23709;48.078;11.684;2023-09-18T08:14:18;22.30;99.90
37874;DHT22;23709;48.078;11.684;2023-09-18T08:16:57;22.30;99.90
37874;DHT22;23709;48.078;11.684;2023-09-18T08:19:29;22.30;99.90
37874;DHT22;23709;48.078;11.684;2023-09-18T08:22:02;22.40;99.90
37874;DHT22;23709;48.078;11.684;2023-09-18T08:24:36;22.30;99.90
37874;DHT22;23709;48.078;11.684;2023-09-18T08:27:09;22.30;99.90
37874;DHT22;23709;48.078;11.684;2023-09-18T08:29:41;22.30;99.90
37874;DHT22;23709;48.078;11.684;2023-09-18T08:32:13;22.30;99.90
37874;DHT22;23709;48.078;11.684;2023-09-18T08:34:46;22.30;99.90
37874;DHT22;23709;48.078;11.684;2023-09-18T08:37:18;22.20;99.90
37874;DHT22;23709;48.078;11.684;2023-09-18T08:39:50;22.20;99.90
37874;DHT22;23709;48.078;11.684;2023-09-18T08:42:23;22.20;99.90
37874;DHT22;23709;48.078;11.684;2023-09-18T08:44:58;22.30;99.90
37874;DHT22;23709;48.078;11.684;2023-09-18T08:47:32;22.40;99.90
37874;DHT22;23709;48.078;11.684;2023-09-18T08:50:05;22.40;99.90
37874;DHT22;23709;48.078;11.684;2023-09-18T08:52:37;22.50;99.90
37874;DHT22;23709;48.078;11.684;2023-09-18T08:55:11;22.50;99.90
37874;DHT22;23709;48.078;11.684;2023-09-18T08:57:44;22.40;99.90
37874;DHT22;23709;48.078;11.684;2023-09-18T09:00:18;22.40;99.90
37874;DHT22;23709;48.078;11.684;2023-09-18T09:02:50;22.50;99.90
37874;DHT22;23709;48.078;11.684;2023-09-18T09:05:24;22.50;99.90
37874;DHT22;23709;48.078;11.684;2023-09-18T09:07:57;22.40;99.90
37874;DHT22;23709;48.078;11.684;2023-09-18T09:10:29;22.40;99.90
37874;DHT22;23709;48.078;11.684;2023-09-18T09:13:03;22.40;99.90
37874;DHT22;23709;48.078;11.684;2023-09-18T09:15:44;22.40;99.90
37874;DHT22;23709;48.078;11.684;2023-09-18T09:18:18;22.20;99.90
37874;DHT22;23709;48.078;11.684;2023-09-18T09:20:58;22.30;99.90
37874;DHT22;23709;48.078;11.684;2023-09-18T09:23:52;22.20;99.90
37874;DHT22;23709;48.078;11.684;2023-09-18T09:26:25;22.20;99.90
37874;DHT22;23709;48.078;11.684;2023-09-18T09:29:20;22.20;99.90
37874;DHT22;23709;48.078;11.684;2023-09-18T09:31:53;22.30;99.90
37874;DHT22;23709;48.078;11.684;2023-09-18T09:34:28;22.50;99.90
37874;DHT22;23709;48.078;11.684;2023-09-18T09:37:03;22.70;99.90
37874;DHT22;23709;48.078;11.684;2023-09-18T09:39:51;22.90;99.90
37874;DHT22;23709;48.078;11.684;2023-09-18T09:42:24;23.00;99.90
37874;DHT22;23709;48.078;11.684;2023-09-18T09:45:01;23.10;99.90
37874;DHT22;23709;48.078;11.684;2023-09-18T09:47:35;23.00;99.90
37874;DHT22;23709;48.078;11.684;2023-09-18T09:50:15;23.10;99.90
37874;DHT22;23709;48.078;11.684;2023-09-18T09:52:51;23.10;99.90
37874;DHT22;23709;48.078;11.684;2023-09-18T10:00:47;23.10;99.90
37874;DHT22;23709;48.078;11.684;2023-09-18T10:03:22;23.10;99.90
37874;DHT22;23709;48.078;11.684;2023-09-18T10:05:56;23.10;99.90
37874;DHT22;23709;48.078;11.684;2023-09-18T10:08:29;23.10;99.90
37874;DHT22;23709;48.078;11.684;2023-09-18T10:11:08;23.20;99.90
37874;DHT22;23709;48.078;11.684;2023-09-18T10:13:47;23.30;99.90
37874;DHT22;23709;48.078;11.684;2023-09-18T10:16:24;23.20;99.90
37874;DHT22;23709;48.078;11.684;2023-09-18T10:19:03;23.20;99.90
37874;DHT22;23709;48.078;11.684;2023-09-18T10:24:33;23.20;99.90
37874;DHT22;23709;48.078;11.684;2023-09-18T10:27:09;23.10;99.90
37874;DHT22;23709;48.078;11.684;2023-09-18T10:29:49;23.00;99.90
37874;DHT22;23709;48.078;11.684;2023-09-18T10:32:26;23.10;99.90
37874;DHT22;23709;48.078;11.684;2023-09-18T10:35:03;23.20;99.90
37874;DHT22;23709;48.078;11.684;2023-09-18T10:37:37;23.20;99.90
37874;DHT22;23709;48.078;11.684;2023-09-18T10:40:11;23.20;99.90
37874;DHT22;23709;48.078;11.684;2023-09-18T10:42:45;23.20;99.90
37874;DHT22;23709;48.078;11.684;2023-09-18T10:45:18;23.20;99.90
37874;DHT22;23709;48.078;11.684;2023-09-18T10:47:51;23.10;99.90
37874;DHT22;23709;48.078;11.684;2023-09-18T10:50:25;23.20;99.90
37874;DHT22;23709;48.078;11.684;2023-09-18T10:52:58;23.20;99.90
37874;DHT22;23709;48.078;11.684;2023-09-18T10:55:31;23.10;99.90
37874;DHT22;23709;48.078;11.684;2023-09-18T10:58:06;23.20;99.90
37874;DHT22;23709;48.078;11.684;2023-09-18T11:00:41;23.20;99.90
37874;DHT22;23709;48.078;11.684;2023-09-18T11:03:18;23.20;99.90
37874;DHT22;23709;48.078;11.684;2023-09-18T11:06:06;23.30;99.90
37874;DHT22;23709;48.078;11.684;2023-09-18T11:08:46;23.40;99.90
37874;DHT22;23709;48.078;11.684;2023-09-18T11:11:19;23.40;99.90
37874;DHT22;23709;48.078;11.684;2023-09-18T11:13:58;23.50;99.90
37874;DHT22;23709;48.078;11.684;2023-09-18T11:16:35;23.50;99.90
37874;DHT22;23709;48.078;11.684;2023-09-18T11:19:12;23.60;99.90
37874;DHT22;23709;48.078;11.684;2023-09-18T11:21:46;23.60;99.90
37874;DHT22;23709;48.078;11.684;2023-09-18T11:24:20;23.50;99.90
37874;DHT22;23709;48.078;11.684;2023-09-18T11:26:53;23.50;99.90
37874;DHT22;23709;48.078;11.684;2023-09-18T11:29:26;23.50;99.90
37874;DHT22;23709;48.078;11.684;2023-09-18T11:32:01;23.60;99.90
37874;DHT22;23709;48.078;11.684;2023-09-18T11:34:36;23.60;99.90
37874;DHT22;23709;48.078;11.684;2023-09-18T11:37:20;23.40;99.90
37874;DHT22;23709;48.078;11.684;2023-09-18T11:39:54;23.20;99.90
37874;DHT22;23709;48.078;11.684;2023-09-18T11:42:27;23.00;99.90
37874;DHT22;23709;48.078;11.684;2023-09-18T11:45:00;22.90;99.90
37874;DHT22;23709;48.078;11.684;2023-09-18T11:47:33;22.80;99.90
37874;DHT22;23709;48.078;11.684;2023-09-18T11:50:15;22.70;99.90
37874;DHT22;23709;48.078;11.684;2023-09-18T11:52:49;22.70;99.90
37874;DHT22;23709;48.078;11.684;2023-09-18T11:55:21;22.50;99.90
37874;DHT22;23709;48.078;11.684;2023-09-18T11:57:54;22.30;99.90
37874;DHT22;23709;48.078;11.684;2023-09-18T12:00:30;22.10;99.90
37874;DHT22;23709;48.078;11.684;2023-09-18T12:03:22;22.00;99.90
37874;DHT22;23709;48.078;11.684;2023-09-18T12:06:02;21.80;99.90
37874;DHT22;23709;48.078;11.684;2023-09-18T12:08:37;21.60;99.90
37874;DHT22;23709;48.078;11.684;2023-09-18T12:11:10;21.50;99.90
37874;DHT22;23709;48.078;11.684;2023-09-18T12:13:51;21.30;99.90
37874;DHT22;23709;48.078;11.684;2023-09-18T12:16:24;21.20;99.90
37874;DHT22;23709;48.078;11.684;2023-09-18T12:18:56;21.20;99.90
37874;DHT22;23709;48.078;11.684;2023-09-18T12:21:29;21.20;99.90
37874;DHT22;23709;48.078;11.684;2023-09-18T12:24:02;20.90;99.90
37874;DHT22;23709;48.078;11.684;2023-09-18T12:26:40;20.80;99.90
37874;DHT22;23709;48.078;11.684;2023-09-18T12:29:13;20.70;99.90
37874;DHT22;23709;48.078;11.684;2023-09-18T12:31:46;20.50;99.90
37874;DHT22;23709;48.078;11.684;2023-09-18T12:34:20;20.30;99.90
37874;DHT22;23709;48.078;11.684;2023-09-18T12:36:56;20.10;99.90
37874;DHT22;23709;48.078;11.684;2023-09-18T12:39:32;20.00;99.90
37874;DHT22;23709;48.078;11.684;2023-09-18T12:42:05;19.90;99.90
37874;DHT22;23709;48.078;11.684;2023-09-18T12:44:38;19.90;99.90
37874;DHT22;23709;48.078;11.684;2023-09-18T12:47:10;19.70;99.90
37874;DHT22;23709;48.078;11.684;2023-09-18T12:49:43;19.60;99.90
37874;DHT22;23709;48.078;11.684;2023-09-18T12:52:22;19.70;99.90
37874;DHT22;23709;48.078;11.684;2023-09-18T12:54:55;19.60;99.90
37874;DHT22;23709;48.078;11.684;2023-09-18T12:57:28;19.50;99.90
37874;DHT22;23709;48.078;11.684;2023-09-18T13:00:08;19.40;99.90
37874;DHT22;23709;48.078;11.684;2023-09-18T13:02:44;19.30;99.90
37874;DHT22;23709;48.078;11.684;2023-09-18T13:05:21;19.00;99.90
37874;DHT22;23709;48.078;11.684;2023-09-18T13:08:03;19.20;99.90
37874;DHT22;23709;48.078;11.684;2023-09-18T13:10:46;18.90;99.90
37874;DHT22;23709;48.078;11.684;2023-09-18T13:13:20;18.80;99.90
37874;DHT22;23709;48.078;11.684;2023-09-18T13:15:57;18.70;99.90
37874;DHT22;23709;48.078;11.684;2023-09-18T13:18:32;18.60;99.90
37874;DHT22;23709;48.078;11.684;2023-09-18T13:21:11;18.50;99.90
37874;DHT22;23709;48.078;11.684;2023-09-18T13:23:44;18.40;99.90
37874;DHT22;23709;48.078;11.684;2023-09-18T13:26:16;18.40;99.90
37874;DHT22;23709;48.078;11.684;2023-09-18T13:28:48;18.30;99.90
37874;DHT22;23709;48.078;11.684;2023-09-18T13:31:20;18.20;99.90
37874;DHT22;23709;48.078;11.684;2023-09-18T13:33:53;18.00;99.90
37874;DHT22;23709;48.078;11.684;2023-09-18T13:36:26;18.00;99.90
37874;DHT22;23709;48.078;11.684;2023-09-18T13:38:59;17.90;99.90
37874;DHT22;23709;48.078;11.684;2023-09-18T13:41:31;17.90;99.90
37874;DHT22;23709;48.078;11.684;2023-09-18T13:44:03;17.90;99.90
37874;DHT22;23709;48.078;11.684;2023-09-18T13:46:39;17.90;99.90
37874;DHT22;23709;48.078;11.684;2023-09-18T13:49:11;17.90;99.90
37874;DHT22;23709;48.078;11.684;2023-09-18T13:51:43;18.00;99.90
37874;DHT22;23709;48.078;11.684;2023-09-18T13:54:16;17.90;99.90
37874;DHT22;23709;48.078;11.684;2023-09-18T13:56:48;18.00;99.90
37874;DHT22;23709;48.078;11.684;2023-09-18T13:59:21;18.00;99.90
37874;DHT22;23709;48.078;11.684;2023-09-18T14:01:53;18.20;99.90
37874;DHT22;23709;48.078;11.684;2023-09-18T14:04:27;18.20;99.90
37874;DHT22;23709;48.078;11.684;2023-09-18T14:06:59;18.30;99.90
37874;DHT22;23709;48.078;11.684;2023-09-18T14:09:31;18.30;99.90
37874;DHT22;23709;48.078;11.684;2023-09-18T14:12:05;18.30;99.90
37874;DHT22;23709;48.078;11.684;2023-09-18T14:14:41;18.60;99.90
37874;DHT22;23709;48.078;11.684;2023-09-18T14:17:14;18.50;99.90
37874;DHT22;23709;48.078;11.684;2023-09-18T14:19:49;18.60;99.90
37874;DHT22;23709;48.078;11.684;2023-09-18T14:22:24;18.70;99.90
37874;DHT22;23709;48.078;11.684;2023-09-18T14:24:56;18.70;99.90
37874;DHT22;23709;48.078;11.684;2023-09-18T14:27:29;18.80;99.90
37874;DHT22;23709;48.078;11.684;2023-09-18T14:30:02;18.90;99.90
37874;DHT22;23709;48.078;11.684;2023-09-18T14:32:39;19.00;99.90
37874;DHT22;23709;48.078;11.684;2023-09-18T14:35:13;19.00;99.90
37874;DHT22;23709;48.078;11.684;2023-09-18T14:37:46;19.10;99.90
37874;DHT22;23709;48.078;11.684;2023-09-18T14:40:18;19.00;99.90
37874;DHT22;23709;48.078;11.684;2023-09-18T14:42:53;19.10;99.90
37874;DHT22;23709;48.078;11.684;2023-09-18T14:45:26;19.20;99.90
37874;DHT22;23709;48.078;11.684;2023-09-18T14:47:58;19.20;99.90
37874;DHT22;23709;48.078;11.684;2023-09-18T14:50:33;19.20;99.90
37874;DHT22;23709;48.078;11.684;2023-09-18T14:53:06;19.30;99.90
37874;DHT22;23709;48.078;11.684;2023-09-18T14:55:40;19.20;99.90
37874;DHT22;23709;48.078;11.684;2023-09-18T14:58:14;19.20;99.90
37874;DHT22;23709;48.078;11.684;2023-09-18T15:00:46;19.10;99.90
37874;DHT22;23709;48.078;11.684;2023-09-18T15:03:18;19.10;99.90
37874;DHT22;23709;48.078;11.684;2023-09-18T15:05:52;19.00;99.90
37874;DHT22;23709;48.078;11.684;2023-09-18T15:08:25;18.90;99.90
37874;DHT22;23709;48.078;11.684;2023-09-18T15:10:57;19.00;99.90
37874;DHT22;23709;48.078;11.684;2023-09-18T15:13:30;19.00;99.90
37874;DHT22;23709;48.078;11.684;2023-09-18T15:16:04;19.00;99.90
37874;DHT22;23709;48.078;11.684;2023-09-18T15:18:37;19.00;99.90
37874;DHT22;23709;48.078;11.684;2023-09-18T15:21:11;19.00;99.90
37874;DHT22;23709;48.078;11.684;2023-09-18T15:23:43;18.80;99.90
37874;DHT22;23709;48.078;11.684;2023-09-18T15:26:16;18.80;99.90
37874;DHT22;23709;48.078;11.684;2023-09-18T15:28:48;18.80;99.90
37874;DHT22;23709;48.078;11.684;2023-09-18T15:31:21;18.70;99.90
37874;DHT22;23709;48.078;11.684;2023-09-18T15:33:53;18.70;99.90
37874;DHT22;23709;48.078;11.684;2023-09-18T15:36:27;18.70;99.90
37874;DHT22;23709;48.078;11.684;2023-09-18T15:38:59;18.70;99.90
37874;DHT22;23709;48.078;11.684;2023-09-18T15:41:32;18.50;99.90
37874;DHT22;23709;48.078;11.684;2023-09-18T15:44:05;18.50;99.90
37874;DHT22;23709;48.078;11.684;2023-09-18T15:46:38;18.40;99.90
37874;DHT22;23709;48.078;11.684;2023-09-18T15:49:10;18.30;99.90
37874;DHT22;23709;48.078;11.684;2023-09-18T15:51:42;18.20;99.90
37874;DHT22;23709;48.078;11.684;2023-09-18T15:54:14;18.00;99.90
37874;DHT22;23709;48.078;11.684;2023-09-18T15:56:48;17.90;99.90
37874;DHT22;23709;48.078;11.684;2023-09-18T15:59:21;17.80;99.90
37874;DHT22;23709;48.078;11.684;2023-09-18T16:01:53;17.60;99.90
37874;DHT22;23709;48.078;11.684;2023-09-18T16:04:25;17.60;99.90
37874;DHT22;23709;48.078;11.684;2023-09-18T16:06:58;17.60;99.90